createdAt,value
2023-05-21T00:00:40.081Z,24.28
2023-05-21T00:03:13.796Z,24.28
2023-05-21T00:05:41.594Z,24.28
2023-05-21T00:08:09.378Z,24.29
2023-05-21T00:10:36.848Z,24.29
2023-05-21T00:13:04.529Z,24.29
2023-05-21T00:15:32.386Z,24.28
2023-05-21T00:17:59.913Z,24.29
2023-05-21T00:20:29.344Z,24.28
2023-05-21T00:22:57.053Z,24.29
2023-05-21T00:25:24.516Z,24.30
2023-05-21T00:27:51.946Z,24.30
2023-05-21T00:30:19.763Z,24.29
2023-05-21T00:32:47.443Z,24.28
2023-05-21T00:35:15.070Z,24.28
2023-05-21T00:37:42.902Z,24.29
2023-05-21T00:40:11.576Z,24.27
2023-05-21T00:42:39.386Z,24.27
2023-05-21T00:45:07.626Z,24.28
2023-05-21T00:47:35.454Z,24.26
2023-05-21T00:50:03.751Z,24.28
2023-05-21T00:52:31.630Z,24.28
2023-05-21T00:54:59.096Z,24.27
2023-05-21T00:57:27.205Z,24.28
2023-05-21T00:59:55.096Z,24.27
2023-05-21T01:02:24.391Z,24.27
2023-05-21T01:04:54.721Z,24.29
2023-05-21T01:07:22.446Z,24.29
2023-05-21T01:09:49.930Z,24.29
2023-05-21T01:12:18.134Z,24.30
2023-05-21T01:14:45.853Z,24.29
2023-05-21T01:17:13.490Z,24.28
2023-05-21T01:19:41.816Z,24.29
2023-05-21T01:22:09.572Z,24.29
2023-05-21T01:24:37.125Z,24.29
2023-05-21T01:27:07.743Z,24.29
2023-05-21T01:29:35.642Z,24.29
2023-05-21T01:32:09.776Z,24.28
2023-05-21T01:35:00.903Z,24.28
2023-05-21T01:37:38.756Z,24.30
2023-05-21T01:40:23.159Z,24.29
2023-05-21T01:42:50.634Z,24.28
2023-05-21T01:45:19.088Z,24.27
2023-05-21T01:47:48.301Z,24.27
2023-05-21T01:50:16.438Z,24.28
2023-05-21T01:53:03.961Z,24.29
2023-05-21T01:55:31.771Z,24.30
2023-05-21T01:58:02.018Z,24.29
2023-05-21T02:00:30.915Z,24.29
2023-05-21T02:02:59.009Z,24.29
2023-05-21T02:05:26.663Z,24.31
2023-05-21T02:07:54.937Z,24.30
2023-05-21T02:10:23.229Z,24.30
2023-05-21T02:12:51.447Z,24.31
2023-05-21T02:15:19.265Z,24.30
2023-05-21T02:17:47.208Z,24.30
2023-05-21T02:20:15.650Z,24.30
2023-05-21T02:22:47.052Z,24.31
2023-05-21T02:25:18.475Z,24.30
2023-05-21T02:27:47.030Z,24.30
2023-05-21T02:30:15.593Z,24.30
2023-05-21T02:32:43.642Z,24.29
2023-05-21T02:35:12.363Z,24.30
2023-05-21T02:37:40.695Z,24.29
2023-05-21T02:40:09.787Z,24.30
2023-05-21T02:42:39.572Z,24.29
2023-05-21T02:45:08.085Z,24.30
2023-05-21T02:47:35.774Z,24.39
2023-05-21T02:50:03.427Z,24.31
2023-05-21T02:52:31.676Z,24.29
2023-05-21T02:54:59.152Z,24.29
2023-05-21T02:57:26.660Z,24.28
2023-05-21T02:59:54.521Z,24.27
2023-05-21T03:02:23.094Z,24.28
2023-05-21T03:04:50.879Z,24.28
2023-05-21T03:07:20.090Z,24.28
2023-05-21T03:09:47.774Z,24.28
2023-05-21T03:12:15.414Z,24.29
2023-05-21T03:14:44.234Z,24.29
2023-05-21T03:17:14.103Z,24.29
2023-05-21T03:19:41.800Z,24.28
2023-05-21T03:22:09.615Z,24.29
2023-05-21T03:24:38.501Z,24.29
2023-05-21T03:27:06.849Z,24.27
2023-05-21T03:29:34.823Z,24.29
2023-05-21T03:32:02.653Z,24.29
2023-05-21T03:34:31.220Z,24.28
2023-05-21T03:36:59.468Z,24.27
2023-05-21T03:39:27.916Z,24.28
2023-05-21T03:41:55.890Z,24.28
2023-05-21T03:44:23.984Z,24.28
2023-05-21T03:46:51.925Z,24.28
2023-05-21T03:49:20.417Z,24.29
2023-05-21T03:51:48.785Z,24.27
2023-05-21T03:54:16.495Z,24.28
2023-05-21T03:56:44.099Z,24.27
2023-05-21T03:59:12.445Z,24.27
2023-05-21T04:01:39.960Z,24.27
2023-05-21T04:04:08.348Z,24.26
2023-05-21T04:06:35.859Z,24.26
2023-05-21T04:09:04.877Z,24.27
2023-05-21T04:11:32.582Z,24.26
2023-05-21T04:14:00.043Z,24.27
2023-05-21T04:16:27.568Z,24.26
2023-05-21T04:18:55.625Z,24.26
2023-05-21T04:21:23.275Z,24.27
2023-05-21T04:23:50.758Z,24.26
2023-05-21T04:26:19.740Z,24.28
2023-05-21T04:28:47.878Z,24.28
2023-05-21T04:31:15.737Z,24.28
2023-05-21T04:33:46.103Z,24.29
2023-05-21T04:36:13.816Z,24.28
2023-05-21T04:38:42.764Z,24.29
2023-05-21T04:41:11.179Z,24.30
2023-05-21T04:43:39.215Z,24.32
2023-05-21T04:46:07.668Z,24.33
2023-05-21T04:48:35.600Z,24.32
2023-05-21T04:51:05.748Z,24.33
2023-05-21T04:53:34.039Z,24.31
2023-05-21T04:56:03.215Z,24.32
2023-05-21T04:58:32.984Z,24.32
2023-05-21T05:01:03.279Z,24.33
2023-05-21T05:03:31.421Z,24.33
2023-05-21T05:06:00.103Z,24.30
2023-05-21T05:08:27.526Z,24.32
2023-05-21T05:10:55.241Z,24.32
2023-05-21T05:13:22.804Z,24.33
2023-05-21T05:15:51.537Z,24.34
2023-05-21T05:18:22.013Z,24.34
2023-05-21T05:20:49.521Z,24.33
2023-05-21T05:23:17.392Z,24.34
2023-05-21T05:25:45.363Z,24.33
2023-05-21T05:28:12.884Z,24.34
2023-05-21T05:30:40.764Z,24.33
2023-05-21T05:33:09.236Z,24.34
2023-05-21T05:35:36.917Z,24.34
2023-05-21T05:38:05.050Z,24.34
2023-05-21T05:40:33.469Z,24.35
2023-05-21T05:43:01.083Z,24.34
2023-05-21T05:45:28.647Z,24.34
2023-05-21T05:47:56.999Z,24.34
2023-05-21T05:50:24.484Z,24.35
2023-05-21T05:52:52.637Z,24.34
2023-05-21T05:55:22.058Z,24.35
2023-05-21T05:57:49.560Z,24.35
2023-05-21T06:00:17.726Z,24.36
2023-05-21T06:02:45.710Z,24.34
2023-05-21T06:05:13.240Z,24.35
2023-05-21T06:07:41.309Z,24.36
2023-05-21T06:10:09.360Z,24.35
2023-05-21T06:12:36.866Z,24.34
2023-05-21T06:15:05.705Z,24.35
2023-05-21T06:17:34.384Z,24.34
2023-05-21T06:20:02.692Z,24.45
2023-05-21T06:22:31.285Z,24.38
2023-05-21T06:24:59.077Z,24.35
2023-05-21T06:27:26.562Z,24.34
2023-05-21T06:29:54.165Z,24.35
2023-05-21T06:32:23.139Z,24.35
2023-05-21T06:34:50.981Z,24.35
2023-05-21T06:37:20.402Z,24.36
2023-05-21T06:39:48.121Z,24.35
2023-05-21T06:42:15.770Z,24.37
2023-05-21T06:44:44.224Z,24.36
2023-05-21T06:47:12.087Z,24.37
2023-05-21T06:49:39.858Z,24.37
2023-05-21T06:52:07.382Z,24.37
2023-05-21T06:54:36.424Z,24.37
2023-05-21T06:57:04.116Z,24.39
2023-05-21T06:59:32.022Z,24.40
2023-05-21T07:02:00.170Z,24.39
2023-05-21T07:04:29.202Z,24.40
2023-05-21T07:06:56.822Z,24.40
2023-05-21T07:09:24.813Z,24.39
2023-05-21T07:11:53.369Z,24.39
2023-05-21T07:14:22.094Z,24.39
2023-05-21T07:16:51.429Z,24.39
2023-05-21T07:19:19.025Z,24.39
2023-05-21T07:21:46.928Z,24.40
2023-05-21T07:24:14.642Z,24.42
2023-05-21T07:26:43.166Z,24.42
2023-05-21T07:29:11.301Z,24.43
2023-05-21T07:31:39.202Z,24.43
2023-05-21T07:34:06.907Z,24.43
2023-05-21T07:36:34.390Z,24.44
2023-05-21T07:39:02.136Z,24.43
2023-05-21T07:41:30.050Z,24.45
2023-05-21T07:43:58.499Z,24.46
2023-05-21T07:46:26.297Z,24.46
2023-05-21T07:48:54.242Z,24.47
2023-05-21T07:51:21.858Z,24.49
2023-05-21T07:53:49.549Z,24.49
2023-05-21T07:56:17.485Z,24.51
2023-05-21T07:58:45.900Z,24.51
2023-05-21T08:01:14.368Z,24.52
2023-05-21T08:03:42.383Z,24.53
2023-05-21T08:06:10.031Z,24.55
2023-05-21T08:08:37.528Z,24.56
2023-05-21T08:11:05.359Z,24.58
2023-05-21T08:13:34.404Z,24.58
2023-05-21T08:16:03.283Z,24.59
2023-05-21T08:18:31.285Z,24.58
2023-05-21T08:20:58.820Z,24.60
2023-05-21T08:23:27.292Z,24.58
2023-05-21T08:25:55.078Z,24.58
2023-05-21T08:28:23.366Z,24.59
2023-05-21T08:30:52.035Z,24.59
2023-05-21T08:33:21.434Z,24.59
2023-05-21T08:35:49.188Z,24.60
2023-05-21T08:38:17.720Z,24.61
2023-05-21T08:40:46.220Z,24.60
2023-05-21T08:43:16.441Z,24.61
2023-05-21T08:45:51.586Z,24.61
2023-05-21T08:48:19.378Z,24.63
2023-05-21T08:50:47.265Z,24.62
2023-05-21T08:53:27.111Z,24.64
2023-05-21T08:55:57.418Z,24.62
2023-05-21T08:58:25.716Z,24.64
2023-05-21T09:00:54.657Z,24.63
2023-05-21T09:03:23.150Z,24.64
2023-05-21T09:05:51.836Z,24.64
2023-05-21T09:08:27.388Z,24.65
2023-05-21T09:10:55.601Z,24.66
2023-05-21T09:13:23.535Z,24.66
2023-05-21T09:15:51.714Z,24.65
2023-05-21T09:18:19.675Z,24.65
2023-05-21T09:20:47.662Z,24.66
2023-05-21T09:23:17.466Z,24.67
2023-05-21T09:25:46.639Z,24.65
2023-05-21T09:28:15.488Z,24.67
2023-05-21T09:30:46.556Z,24.65
2023-05-21T09:33:29.368Z,24.67
2023-05-21T09:35:56.918Z,24.69
2023-05-21T09:38:26.974Z,24.68
2023-05-21T09:40:57.526Z,24.68
2023-05-21T09:43:26.940Z,24.68
2023-05-21T09:45:56.096Z,24.69
2023-05-21T09:48:37.878Z,24.69
2023-05-21T09:51:14.404Z,24.74
2023-05-21T09:54:01.133Z,24.73
2023-05-21T09:56:32.169Z,24.72
2023-05-21T09:59:01.469Z,24.71
2023-05-21T10:01:29.357Z,24.72
2023-05-21T10:03:58.090Z,24.73
2023-05-21T10:06:29.946Z,24.72
2023-05-21T10:08:59.478Z,24.74
2023-05-21T10:11:27.814Z,24.75
2023-05-21T10:14:04.846Z,24.76
2023-05-21T10:16:33.865Z,24.78
2023-05-21T10:19:01.442Z,24.76
2023-05-21T10:21:29.029Z,24.77
2023-05-21T10:23:57.140Z,24.77
2023-05-21T10:26:24.908Z,24.78
2023-05-21T10:28:52.421Z,24.78
2023-05-21T10:31:20.247Z,24.79
2023-05-21T10:33:47.702Z,24.80
2023-05-21T10:36:22.003Z,24.81
2023-05-21T10:38:49.754Z,24.79
2023-05-21T10:41:18.315Z,24.80
2023-05-21T10:44:10.717Z,24.82
2023-05-21T10:46:41.100Z,24.80
2023-05-21T10:49:22.741Z,24.79
2023-05-21T10:52:18.238Z,24.79
2023-05-21T10:54:55.269Z,24.80
2023-05-21T10:58:13.458Z,24.79
2023-05-21T11:00:42.169Z,24.80
2023-05-21T11:03:11.546Z,24.76
2023-05-21T11:05:51.717Z,24.76
2023-05-21T11:08:26.015Z,24.76
2023-05-21T11:10:58.196Z,24.76
2023-05-21T11:13:26.968Z,24.76
2023-05-21T11:18:42.425Z,24.75
2023-05-21T11:21:30.522Z,24.74
2023-05-21T11:24:02.706Z,24.76
2023-05-21T11:26:52.282Z,24.73
2023-05-21T11:29:20.126Z,24.73
2023-05-21T11:31:48.729Z,24.75
2023-05-21T11:34:21.910Z,24.73
2023-05-21T11:36:49.934Z,24.72
2023-05-21T11:39:21.982Z,24.73
2023-05-21T11:42:03.144Z,24.73
2023-05-21T11:44:40.828Z,24.73
2023-05-21T11:47:12.308Z,24.72
2023-05-21T11:49:39.776Z,24.70
2023-05-21T11:52:07.865Z,24.72
2023-05-21T11:54:50.716Z,24.71
2023-05-21T11:57:21.220Z,24.72
2023-05-21T11:59:51.517Z,24.70
2023-05-21T12:02:19.403Z,24.70
2023-05-21T12:04:48.620Z,24.80
2023-05-21T12:07:17.390Z,24.73
2023-05-21T12:09:51.089Z,24.70
2023-05-21T12:12:21.480Z,24.68
2023-05-21T12:14:55.194Z,24.70
2023-05-21T12:17:23.668Z,24.80
2023-05-21T12:19:52.905Z,24.72
2023-05-21T12:22:20.521Z,24.69
2023-05-21T12:24:51.160Z,24.72
2023-05-21T12:27:18.619Z,24.73
2023-05-21T12:29:47.330Z,24.73
2023-05-21T12:32:15.781Z,24.73
2023-05-21T12:34:51.474Z,24.75
2023-05-21T12:37:23.152Z,24.75
2023-05-21T12:39:51.607Z,24.76
2023-05-21T12:42:30.067Z,24.75
2023-05-21T12:44:57.644Z,24.77
2023-05-21T12:47:29.012Z,24.77
2023-05-21T12:50:03.985Z,24.79
2023-05-21T12:52:31.708Z,24.79
2023-05-21T12:54:59.342Z,24.78
2023-05-21T12:57:30.744Z,24.79
2023-05-21T12:59:59.731Z,24.77
2023-05-21T13:02:28.995Z,24.79
2023-05-21T13:04:57.251Z,24.79
2023-05-21T13:07:29.362Z,24.80
2023-05-21T13:09:56.925Z,24.80
2023-05-21T13:12:29.190Z,24.80
2023-05-21T13:15:00.909Z,24.81
2023-05-21T13:17:28.814Z,24.80
2023-05-21T13:20:08.769Z,24.81
2023-05-21T13:22:39.126Z,24.83
2023-05-21T13:25:07.105Z,24.83
2023-05-21T13:27:34.422Z,24.92
2023-05-21T13:30:02.235Z,24.85
2023-05-21T13:32:29.952Z,24.82
2023-05-21T13:34:57.594Z,24.82
2023-05-21T13:37:25.430Z,24.83
2023-05-21T13:39:52.875Z,24.84
2023-05-21T13:42:21.201Z,24.83
2023-05-21T13:44:48.976Z,24.84
2023-05-21T13:47:16.562Z,24.83
2023-05-21T13:49:43.983Z,24.84
2023-05-21T13:52:11.904Z,24.84
2023-05-21T13:54:39.768Z,24.85
2023-05-21T13:57:07.215Z,24.84
2023-05-21T13:59:34.970Z,24.84
2023-05-21T14:02:02.559Z,24.85
2023-05-21T14:04:30.412Z,24.86
2023-05-21T14:06:57.867Z,24.87
2023-05-21T14:09:27.315Z,24.87
2023-05-21T14:11:58.794Z,24.86
2023-05-21T14:14:26.374Z,24.88
2023-05-21T14:16:54.252Z,24.87
2023-05-21T14:19:22.204Z,24.86
2023-05-21T14:21:51.958Z,24.88
2023-05-21T14:24:19.907Z,24.87
2023-05-21T14:26:47.671Z,24.89
2023-05-21T14:29:15.133Z,24.88
2023-05-21T14:31:42.597Z,24.88
2023-05-21T14:34:10.339Z,24.88
2023-05-21T14:36:37.784Z,24.89
2023-05-21T14:39:05.296Z,24.89
2023-05-21T14:41:32.988Z,24.89
2023-05-21T14:44:00.443Z,24.92
2023-05-21T14:46:28.060Z,24.93
2023-05-21T14:48:59.216Z,24.93
2023-05-21T14:51:26.726Z,24.93
2023-05-21T14:53:54.338Z,24.91
2023-05-21T14:56:23.490Z,24.92
2023-05-21T14:58:51.091Z,24.92
2023-05-21T15:01:18.635Z,24.92
2023-05-21T15:03:46.519Z,24.93
2023-05-21T15:06:13.981Z,24.93
2023-05-21T15:08:41.509Z,24.94
2023-05-21T15:11:10.012Z,24.94
2023-05-21T15:13:38.191Z,24.94
2023-05-21T15:16:06.187Z,24.94
2023-05-21T15:18:33.987Z,24.94
2023-05-21T15:21:01.493Z,24.96
2023-05-21T15:23:29.051Z,24.95
2023-05-21T15:25:56.826Z,24.93
2023-05-21T15:28:24.290Z,24.94
2023-05-21T15:30:51.783Z,24.95
2023-05-21T15:33:19.522Z,24.96
2023-05-21T15:35:47.067Z,24.96
2023-05-21T15:38:14.547Z,24.95
2023-05-21T15:40:42.736Z,24.96
2023-05-21T15:43:10.202Z,24.96
2023-05-21T15:45:38.794Z,24.99
2023-05-21T15:48:07.312Z,25.00
2023-05-21T15:50:38.199Z,25.01
2023-05-21T15:53:05.673Z,25.00
2023-05-21T15:55:33.723Z,25.01
2023-05-21T15:58:03.181Z,25.00
2023-05-21T16:00:30.760Z,25.02
2023-05-21T16:02:58.576Z,25.03
2023-05-21T16:05:26.389Z,25.03
2023-05-21T16:07:53.836Z,25.03
2023-05-21T16:10:21.658Z,25.04
2023-05-21T16:12:49.158Z,25.05
2023-05-21T16:15:16.760Z,25.09
2023-05-21T16:17:44.548Z,25.09
2023-05-21T16:20:12.718Z,25.09
2023-05-21T16:22:40.720Z,25.09
2023-05-21T16:25:09.980Z,25.12
2023-05-21T16:27:37.442Z,25.11
2023-05-21T16:30:05.541Z,25.14
2023-05-21T16:32:33.334Z,25.14
2023-05-21T16:35:00.832Z,25.14
2023-05-21T16:37:28.310Z,25.16
2023-05-21T16:39:56.106Z,25.16
2023-05-21T16:42:24.957Z,25.15
2023-05-21T16:44:52.427Z,25.16
2023-05-21T16:47:20.330Z,25.17
2023-05-21T16:49:47.867Z,25.15
2023-05-21T16:52:15.356Z,25.14
2023-05-21T16:54:48.437Z,25.14
2023-05-21T16:57:16.211Z,25.16
2023-05-21T16:59:43.908Z,25.18
2023-05-21T17:02:11.824Z,25.17
2023-05-21T17:04:41.378Z,25.17
2023-05-21T17:07:09.161Z,25.18
2023-05-21T17:09:36.649Z,25.17
2023-05-21T17:12:04.312Z,25.16
2023-05-21T17:14:34.344Z,25.17
2023-05-21T17:17:02.536Z,25.17
2023-05-21T17:19:30.052Z,25.20
2023-05-21T17:21:57.920Z,25.19
2023-05-21T17:24:25.879Z,25.17
2023-05-21T17:26:53.694Z,25.20
2023-05-21T17:29:21.501Z,25.19
2023-05-21T17:31:50.057Z,25.22
2023-05-21T17:34:18.063Z,25.22
2023-05-21T17:36:45.853Z,25.24
2023-05-21T17:39:13.402Z,25.24
2023-05-21T17:41:40.912Z,25.24
2023-05-21T17:44:08.620Z,25.21
2023-05-21T17:46:36.090Z,25.23
2023-05-21T17:49:03.755Z,25.23
2023-05-21T17:51:31.635Z,25.22
2023-05-21T17:53:59.461Z,25.22
2023-05-21T17:56:27.000Z,25.25
2023-05-21T17:58:55.231Z,25.23
2023-05-21T18:01:22.849Z,25.25
2023-05-21T18:03:50.690Z,25.25
2023-05-21T18:06:18.279Z,25.25
2023-05-21T18:08:45.750Z,25.25
2023-05-21T18:11:13.509Z,25.26
2023-05-21T18:13:41.044Z,25.25
2023-05-21T18:16:08.537Z,25.28
2023-05-21T18:18:36.310Z,25.26
2023-05-21T18:21:03.909Z,25.27
2023-05-21T18:23:31.467Z,25.29
2023-05-21T18:25:59.191Z,25.27
2023-05-21T18:28:29.310Z,25.30
2023-05-21T18:31:00.841Z,25.31
2023-05-21T18:33:28.534Z,25.30
2023-05-21T18:35:56.201Z,25.28
2023-05-21T18:38:23.675Z,25.28
2023-05-21T18:40:51.461Z,25.30
2023-05-21T18:43:18.937Z,25.30
2023-05-21T18:45:46.673Z,25.30
2023-05-21T18:48:14.605Z,25.30
2023-05-21T18:50:44.725Z,25.30
2023-05-21T18:53:11.989Z,25.31
2023-05-21T18:55:39.779Z,25.39
2023-05-21T18:58:07.419Z,25.33
2023-05-21T19:00:35.265Z,25.30
2023-05-21T19:03:03.528Z,25.30
2023-05-21T19:05:31.831Z,25.29
2023-05-21T19:07:59.664Z,25.30
2023-05-21T19:10:27.449Z,25.30
2023-05-21T19:12:55.007Z,25.31
2023-05-21T19:15:22.466Z,25.32
2023-05-21T19:17:50.352Z,25.32
2023-05-21T19:20:24.709Z,25.33
2023-05-21T19:22:53.711Z,25.34
2023-05-21T19:25:21.346Z,25.34
2023-05-21T19:27:48.984Z,25.32
2023-05-21T19:30:16.915Z,25.32
2023-05-21T19:32:46.156Z,25.32
2023-05-21T19:35:13.733Z,25.33
2023-05-21T19:37:41.540Z,25.33
2023-05-21T19:40:09.562Z,25.32
2023-05-21T19:42:37.549Z,25.33
2023-05-21T19:45:09.447Z,25.33
2023-05-21T19:47:37.139Z,25.33
2023-05-21T19:50:05.349Z,25.35
2023-05-21T19:52:32.888Z,25.35
2023-05-21T19:55:04.806Z,25.35
2023-05-21T19:57:33.794Z,25.35
2023-05-21T20:00:01.356Z,25.35
2023-05-21T20:02:40.986Z,25.34
2023-05-21T20:05:09.399Z,25.34
2023-05-21T20:07:37.085Z,25.34
2023-05-21T20:10:04.952Z,25.34
2023-05-21T20:12:32.644Z,25.34
2023-05-21T20:15:00.908Z,25.34
2023-05-21T20:17:33.935Z,25.33
2023-05-21T20:20:03.663Z,25.33
2023-05-21T20:22:31.904Z,25.32
2023-05-21T20:25:01.448Z,25.32
2023-05-21T20:27:29.328Z,25.30
2023-05-21T20:29:56.797Z,25.31
2023-05-21T20:32:24.261Z,25.29
2023-05-21T20:35:02.807Z,25.29
2023-05-21T20:37:32.820Z,25.29
2023-05-21T20:40:00.677Z,25.29
2023-05-21T20:42:34.164Z,25.29
2023-05-21T20:45:03.056Z,25.27
2023-05-21T20:47:31.097Z,25.26
2023-05-21T20:50:02.911Z,25.26
2023-05-21T20:52:30.793Z,25.24
2023-05-21T20:54:59.745Z,25.25
2023-05-21T20:57:27.412Z,25.23
2023-05-21T20:59:55.085Z,25.25
2023-05-21T21:02:23.013Z,25.22
2023-05-21T21:04:50.674Z,25.23
2023-05-21T21:07:18.767Z,25.23
2023-05-21T21:09:46.962Z,25.23
2023-05-21T21:12:25.117Z,25.21
2023-05-21T21:14:54.274Z,25.21
2023-05-21T21:17:21.908Z,25.21
2023-05-21T21:19:49.446Z,25.19
2023-05-21T21:22:18.348Z,25.19
2023-05-21T21:24:46.016Z,25.15
2023-05-21T21:27:13.559Z,25.16
2023-05-21T21:29:41.327Z,25.15
2023-05-21T21:32:08.788Z,25.14
2023-05-21T21:34:36.307Z,25.14
2023-05-21T21:37:04.406Z,25.13
2023-05-21T21:39:31.826Z,25.12
2023-05-21T21:41:59.349Z,25.12
2023-05-21T21:44:27.102Z,25.12
2023-05-21T21:46:54.589Z,25.11
2023-05-21T21:49:22.002Z,25.10
2023-05-21T21:51:51.274Z,25.08
2023-05-21T21:54:18.750Z,25.09
2023-05-21T21:56:46.396Z,25.09
2023-05-21T21:59:14.235Z,25.08
2023-05-21T22:01:42.716Z,25.07
2023-05-21T22:04:11.333Z,25.07
2023-05-21T22:06:39.157Z,25.06
2023-05-21T22:09:07.565Z,25.05
2023-05-21T22:11:35.447Z,25.05
2023-05-21T22:14:04.376Z,25.05
2023-05-21T22:16:33.419Z,25.05
2023-05-21T22:19:01.459Z,25.04
2023-05-21T22:21:29.457Z,25.04
2023-05-21T22:23:57.040Z,25.04
2023-05-21T22:26:24.771Z,25.03
2023-05-21T22:28:52.674Z,25.03
2023-05-21T22:31:20.195Z,25.03
2023-05-21T22:33:47.987Z,25.01
2023-05-21T22:36:15.419Z,25.02
2023-05-21T22:38:43.828Z,25.02
2023-05-21T22:41:11.567Z,25.01
2023-05-21T22:43:39.004Z,25.00
2023-05-21T22:46:06.506Z,24.99
2023-05-21T22:48:37.252Z,25.00
2023-05-21T22:51:05.526Z,24.98
2023-05-21T22:53:33.442Z,24.98
2023-05-21T22:56:01.257Z,24.99
2023-05-21T22:58:28.732Z,24.98
2023-05-21T23:00:56.175Z,24.96
2023-05-21T23:03:23.919Z,24.97
2023-05-21T23:05:51.432Z,24.96
2023-05-21T23:08:19.016Z,24.95
2023-05-21T23:10:46.773Z,24.97
2023-05-21T23:13:14.211Z,24.97
2023-05-21T23:15:43.842Z,24.96
2023-05-21T23:18:12.536Z,24.94
2023-05-21T23:20:41.057Z,24.95
2023-05-21T23:23:09.842Z,24.94
2023-05-21T23:25:37.594Z,24.96
2023-05-21T23:28:05.153Z,24.95
2023-05-21T23:30:32.622Z,24.96
2023-05-21T23:33:00.583Z,24.95
2023-05-21T23:35:28.151Z,24.94
2023-05-21T23:37:55.906Z,24.93
2023-05-21T23:40:23.699Z,24.93
2023-05-21T23:42:51.162Z,24.93
2023-05-21T23:45:18.603Z,24.93
2023-05-21T23:47:46.627Z,24.94
2023-05-21T23:50:14.154Z,24.93
2023-05-21T23:52:41.658Z,24.94
2023-05-21T23:55:11.581Z,24.91
2023-05-21T23:57:39.043Z,24.92
